createdAt,value
2022-12-17T00:01:48.447Z,38.63
2022-12-17T00:04:33.423Z,41.67
2022-12-17T00:07:18.424Z,40.13
2022-12-17T00:10:03.505Z,39.58
2022-12-17T00:12:48.720Z,39.92
2022-12-17T00:15:34.062Z,40.00
2022-12-17T00:18:24.199Z,41.67
2022-12-17T00:21:17.977Z,39.38
2022-12-17T00:24:03.372Z,39.22
2022-12-17T00:26:48.799Z,43.55
2022-12-17T00:29:34.613Z,39.75
2022-12-17T00:32:19.955Z,36.97
2022-12-17T00:35:05.148Z,38.38
2022-12-17T00:37:50.774Z,41.97
2022-12-17T00:40:36.136Z,40.45
2022-12-17T00:43:29.954Z,40.60
2022-12-17T00:46:15.333Z,39.88
2022-12-17T00:49:00.562Z,41.78
2022-12-17T00:51:46.656Z,37.40
2022-12-17T00:54:42.488Z,40.55
2022-12-17T00:57:27.411Z,38.75
2022-12-17T01:00:12.414Z,39.05
2022-12-17T01:02:57.728Z,36.53
2022-12-17T01:05:44.710Z,37.83
2022-12-17T01:08:32.436Z,36.63
2022-12-17T01:11:23.310Z,37.25
2022-12-17T01:14:08.685Z,40.30
2022-12-17T01:17:11.265Z,38.55
2022-12-17T01:19:56.498Z,35.88
2022-12-17T01:22:41.735Z,39.30
2022-12-17T01:25:26.896Z,38.15
2022-12-17T01:28:11.889Z,37.42
2022-12-17T01:30:57.011Z,40.30
2022-12-17T01:33:42.134Z,43.22
2022-12-17T01:36:48.273Z,44.88
2022-12-17T01:39:37.957Z,43.60
2022-12-17T01:42:27.699Z,41.63
2022-12-17T01:45:13.565Z,42.50
2022-12-17T01:48:02.428Z,40.25
2022-12-17T01:50:51.556Z,40.22
2022-12-17T01:53:40.207Z,41.00
2022-12-17T01:56:26.768Z,39.60
2022-12-17T01:59:11.989Z,41.75
2022-12-17T02:01:58.637Z,42.42
2022-12-17T02:04:44.457Z,38.70
2022-12-17T02:07:51.776Z,44.70
2022-12-17T02:10:44.720Z,41.10
2022-12-17T02:13:37.337Z,39.33
2022-12-17T02:16:53.889Z,38.50
2022-12-17T02:20:04.675Z,49.72
2022-12-17T02:23:11.611Z,37.17
2022-12-17T02:26:10.519Z,44.55
2022-12-17T02:29:01.968Z,43.42
2022-12-17T02:31:48.709Z,41.65
2022-12-17T02:34:34.471Z,42.03
2022-12-17T02:37:19.736Z,41.47
2022-12-17T02:40:05.041Z,43.97
2022-12-17T02:42:53.024Z,42.10
2022-12-17T02:45:38.660Z,40.30
2022-12-17T02:48:34.317Z,39.50
2022-12-17T02:51:19.602Z,42.47
2022-12-17T02:54:11.873Z,41.03
2022-12-17T02:56:57.553Z,40.17
2022-12-17T02:59:43.772Z,43.97
2022-12-17T03:02:33.634Z,42.65
2022-12-17T03:05:43.404Z,40.17
2022-12-17T03:08:24.321Z,39.83
2022-12-17T03:11:09.586Z,37.30
2022-12-17T03:13:54.728Z,40.70
2022-12-17T03:16:40.164Z,43.38
2022-12-17T03:19:25.265Z,40.47
2022-12-17T03:22:10.305Z,44.38
2022-12-17T03:24:55.474Z,43.63
2022-12-17T03:27:40.519Z,42.17
2022-12-17T03:30:25.853Z,41.33
2022-12-17T03:33:11.152Z,41.78
2022-12-17T03:35:56.255Z,38.63
2022-12-17T03:38:41.135Z,42.55
2022-12-17T03:41:26.079Z,40.90
2022-12-17T03:44:10.897Z,44.25
2022-12-17T03:46:55.857Z,45.33
2022-12-17T03:49:40.791Z,40.03
2022-12-17T03:52:25.990Z,42.28
2022-12-17T03:55:10.823Z,40.65
2022-12-17T03:57:55.785Z,43.72
2022-12-17T04:01:00.856Z,42.67
2022-12-17T04:03:45.993Z,43.20
2022-12-17T04:06:30.944Z,40.70
2022-12-17T04:09:15.695Z,38.72
2022-12-17T04:12:00.936Z,41.60
2022-12-17T04:14:45.822Z,43.95
2022-12-17T04:17:30.834Z,40.10
2022-12-17T04:20:15.882Z,41.78
2022-12-17T04:23:01.174Z,41.78
2022-12-17T04:25:46.281Z,41.47
2022-12-17T04:28:31.017Z,40.88
2022-12-17T04:31:16.021Z,43.47
2022-12-17T04:34:01.329Z,39.50
2022-12-17T04:36:50.731Z,42.50
2022-12-17T04:39:35.693Z,40.50
2022-12-17T04:42:20.478Z,42.63
2022-12-17T04:45:05.298Z,39.38
2022-12-17T04:47:50.347Z,42.58
2022-12-17T04:50:35.471Z,38.67
2022-12-17T04:53:22.449Z,41.05
2022-12-17T04:56:07.812Z,43.75
2022-12-17T04:58:53.475Z,43.17
2022-12-17T05:01:39.216Z,37.30
2022-12-17T05:04:24.401Z,42.58
2022-12-17T05:07:09.350Z,39.47
2022-12-17T05:09:54.478Z,36.78
2022-12-17T05:12:39.910Z,41.45
2022-12-17T05:15:25.805Z,38.55
2022-12-17T05:18:10.939Z,40.33
2022-12-17T05:20:56.113Z,42.17
2022-12-17T05:23:41.203Z,40.90
2022-12-17T05:26:47.169Z,41.15
2022-12-17T05:29:32.751Z,41.15
2022-12-17T05:32:18.209Z,43.78
2022-12-17T05:35:03.185Z,39.83
2022-12-17T05:37:47.936Z,43.10
2022-12-17T05:40:33.935Z,38.72
2022-12-17T05:43:25.038Z,34.17
2022-12-17T05:46:10.422Z,36.45
2022-12-17T05:48:55.589Z,36.15
2022-12-17T05:51:41.304Z,35.88
2022-12-17T05:54:26.944Z,37.13
2022-12-17T05:57:12.423Z,36.53
2022-12-17T05:59:57.657Z,38.15
2022-12-17T06:02:43.108Z,40.83
2022-12-17T06:05:28.315Z,37.45
2022-12-17T06:08:21.411Z,36.28
2022-12-17T06:11:06.500Z,41.10
2022-12-17T06:13:51.689Z,35.63
2022-12-17T06:16:36.833Z,36.63
2022-12-17T06:19:22.151Z,37.58
2022-12-17T06:22:07.245Z,37.30
2022-12-17T06:24:52.153Z,36.85
2022-12-17T06:27:37.433Z,40.13
2022-12-17T06:30:23.033Z,37.33
2022-12-17T06:33:08.186Z,38.30
2022-12-17T06:35:53.164Z,39.03
2022-12-17T06:38:38.085Z,38.78
2022-12-17T06:41:23.266Z,39.47
2022-12-17T06:44:08.963Z,39.15
2022-12-17T06:46:54.531Z,40.67
2022-12-17T06:49:39.749Z,39.63
2022-12-17T06:52:24.541Z,41.60
2022-12-17T06:55:09.353Z,43.10
2022-12-17T06:57:54.705Z,42.50
2022-12-17T07:00:42.802Z,38.55
2022-12-17T07:03:30.527Z,36.78
2022-12-17T07:06:19.153Z,39.38
2022-12-17T07:09:05.833Z,42.97
2022-12-17T07:11:50.767Z,47.30
2022-12-17T07:14:36.080Z,46.08
2022-12-17T07:17:21.446Z,46.67
2022-12-17T07:20:06.761Z,38.40
2022-12-17T07:22:52.023Z,41.45
2022-12-17T07:25:40.468Z,41.63
2022-12-17T07:28:28.170Z,40.35
2022-12-17T07:31:15.087Z,41.08
2022-12-17T07:34:00.265Z,46.80
2022-12-17T07:36:45.196Z,46.60
2022-12-17T07:39:30.371Z,48.40
2022-12-17T07:42:15.636Z,45.17
2022-12-17T07:45:00.806Z,50.92
2022-12-17T07:47:45.960Z,75.55
2022-12-17T07:50:31.419Z,61.70
2022-12-17T07:53:20.454Z,52.95
2022-12-17T07:56:05.761Z,44.67
2022-12-17T07:58:51.045Z,41.05
2022-12-17T08:01:36.480Z,40.50
2022-12-17T08:04:21.690Z,39.13
2022-12-17T08:07:11.154Z,40.85
2022-12-17T08:09:58.580Z,44.90
2022-12-17T08:12:43.671Z,41.38
2022-12-17T08:15:28.741Z,39.17
2022-12-17T08:18:26.387Z,40.13
2022-12-17T08:21:12.924Z,43.53
2022-12-17T08:23:58.026Z,55.03
2022-12-17T08:26:47.866Z,49.28
2022-12-17T08:29:37.471Z,46.08
2022-12-17T08:32:22.763Z,45.25
2022-12-17T08:35:07.551Z,47.80
2022-12-17T08:37:53.042Z,45.97
2022-12-17T08:40:38.208Z,47.55
2022-12-17T08:43:23.654Z,44.92
2022-12-17T08:46:10.798Z,51.83
2022-12-17T08:48:57.011Z,49.47
2022-12-17T08:51:43.184Z,51.05
2022-12-17T08:54:28.670Z,54.78
2022-12-17T08:57:22.572Z,59.72
2022-12-17T09:00:16.270Z,63.85
2022-12-17T09:03:01.201Z,62.22
2022-12-17T09:05:46.952Z,65.18
2022-12-17T09:08:32.214Z,55.15
2022-12-17T09:11:20.106Z,52.75
2022-12-17T09:14:04.820Z,53.65
2022-12-17T09:16:50.050Z,57.42
2022-12-17T09:19:35.039Z,52.90
2022-12-17T09:22:20.409Z,53.33
2022-12-17T09:25:05.192Z,55.90
2022-12-17T09:27:50.546Z,55.58
2022-12-17T09:30:35.723Z,54.17
2022-12-17T09:33:20.935Z,51.85
2022-12-17T09:36:05.631Z,57.67
2022-12-17T09:38:50.559Z,59.53
2022-12-17T09:41:45.932Z,62.03
2022-12-17T09:44:53.382Z,61.45
2022-12-17T09:47:58.168Z,77.43
2022-12-17T09:50:43.886Z,57.35
2022-12-17T09:53:41.523Z,56.90
2022-12-17T09:56:30.154Z,52.63
2022-12-17T09:59:14.973Z,57.22
2022-12-17T10:02:00.593Z,52.80
2022-12-17T10:04:55.527Z,53.15
2022-12-17T10:07:49.760Z,52.78
2022-12-17T10:10:41.838Z,53.55
2022-12-17T10:13:30.495Z,59.03
2022-12-17T10:16:15.587Z,72.60
2022-12-17T10:19:01.348Z,57.38
2022-12-17T10:21:46.527Z,56.33
2022-12-17T10:24:31.711Z,55.50
2022-12-17T10:27:16.833Z,54.05
2022-12-17T10:30:03.301Z,62.13
2022-12-17T10:32:48.920Z,57.35
2022-12-17T10:35:43.658Z,58.40
2022-12-17T10:38:46.551Z,67.22
2022-12-17T10:41:40.643Z,61.88
2022-12-17T10:47:46.139Z,66.43
2022-12-17T10:50:32.744Z,60.42
2022-12-17T10:53:19.167Z,62.35
2022-12-17T10:56:21.795Z,72.20
2022-12-17T10:59:10.809Z,64.65
2022-12-17T11:01:58.594Z,62.28
2022-12-17T11:05:15.943Z,65.80
2022-12-17T11:08:02.843Z,63.03
2022-12-17T11:10:52.396Z,64.97
2022-12-17T11:13:47.906Z,58.83
2022-12-17T11:16:43.056Z,63.40
2022-12-17T11:19:28.216Z,58.55
2022-12-17T11:22:24.615Z,64.50
2022-12-17T11:25:24.232Z,61.60
2022-12-17T11:28:23.924Z,66.20
2022-12-17T11:31:16.815Z,59.92
2022-12-17T11:34:13.713Z,62.17
2022-12-17T11:37:09.111Z,65.03
2022-12-17T11:40:06.875Z,61.60
2022-12-17T11:42:58.954Z,65.50
2022-12-17T11:45:52.267Z,58.85
2022-12-17T11:48:51.831Z,61.13
2022-12-17T11:51:47.455Z,64.05
2022-12-17T11:54:54.607Z,64.53
2022-12-17T11:57:45.043Z,61.53
2022-12-17T12:00:41.770Z,61.58
2022-12-17T12:04:08.964Z,62.70
2022-12-17T12:07:14.580Z,60.13
2022-12-17T12:10:17.835Z,63.42
2022-12-17T12:13:29.807Z,60.10
2022-12-17T12:16:24.534Z,63.50
2022-12-17T12:19:52.982Z,61.17
2022-12-17T12:22:48.032Z,63.75
2022-12-17T12:25:48.582Z,66.80
2022-12-17T12:28:52.645Z,69.65
2022-12-17T12:31:55.183Z,65.28
2022-12-17T12:34:45.894Z,66.82
2022-12-17T12:37:33.828Z,68.75
2022-12-17T12:40:23.826Z,65.50
2022-12-17T12:43:23.859Z,66.05
2022-12-17T12:46:35.367Z,70.55
2022-12-17T12:49:23.355Z,67.50
2022-12-17T12:52:09.973Z,65.88
2022-12-17T12:55:04.815Z,64.60
2022-12-17T12:57:54.210Z,66.32
2022-12-17T13:00:47.704Z,63.38
2022-12-17T13:03:45.267Z,61.33
2022-12-17T13:06:43.027Z,59.20
2022-12-17T13:09:15.772Z,59.58
2022-12-17T13:11:44.867Z,58.60
2022-12-17T13:14:33.500Z,55.65
2022-12-17T13:17:04.623Z,59.70
2022-12-17T13:19:33.856Z,60.40
2022-12-17T13:22:21.721Z,59.58
2022-12-17T13:25:18.232Z,60.08
2022-12-17T13:27:45.244Z,58.97
2022-12-17T13:30:11.867Z,66.32
2022-12-17T13:32:47.397Z,67.28
2022-12-17T13:35:38.566Z,69.22
2022-12-17T13:38:35.525Z,67.78
2022-12-17T13:41:11.244Z,68.05
2022-12-17T13:43:45.069Z,67.55
2022-12-17T13:46:29.336Z,67.65
2022-12-17T13:49:01.750Z,67.07
2022-12-17T13:51:33.684Z,71.50
2022-12-17T13:54:03.904Z,69.75
2022-12-17T13:56:34.352Z,80.90
2022-12-17T13:59:08.376Z,77.78
2022-12-17T14:01:44.993Z,73.57
2022-12-17T14:04:20.482Z,71.03
2022-12-17T14:06:47.864Z,73.35
2022-12-17T14:09:17.464Z,67.03
2022-12-17T14:12:02.623Z,65.75
2022-12-17T14:14:41.512Z,61.88
2022-12-17T14:17:19.595Z,67.07
2022-12-17T14:19:47.626Z,61.83
2022-12-17T14:22:22.896Z,64.65
2022-12-17T14:24:49.626Z,61.65
2022-12-17T14:27:26.297Z,64.10
2022-12-17T14:29:53.032Z,62.00
2022-12-17T14:32:24.262Z,64.97
2022-12-17T14:34:52.721Z,62.90
2022-12-17T14:37:25.024Z,64.78
2022-12-17T14:39:54.663Z,68.25
2022-12-17T14:42:29.632Z,70.25
2022-12-17T14:45:02.541Z,65.13
2022-12-17T14:47:37.472Z,64.23
2022-12-17T14:50:13.245Z,71.53
2022-12-17T14:52:45.928Z,76.45
2022-12-17T14:55:57.768Z,73.68
2022-12-17T14:58:26.116Z,67.85
2022-12-17T15:00:56.764Z,65.25
2022-12-17T15:03:32.904Z,67.95
2022-12-17T15:06:04.396Z,74.22
2022-12-17T15:08:34.724Z,71.68
2022-12-17T15:11:01.917Z,71.65
2022-12-17T15:13:28.467Z,69.13
2022-12-17T15:15:54.976Z,72.60
2022-12-17T15:18:24.339Z,68.82
2022-12-17T15:20:50.959Z,69.55
2022-12-17T15:23:20.491Z,68.07
2022-12-17T15:25:48.985Z,72.70
2022-12-17T15:28:17.908Z,71.50
2022-12-17T15:30:45.041Z,83.43
2022-12-17T15:33:12.179Z,72.63
2022-12-17T15:35:39.266Z,76.05
2022-12-17T15:38:06.683Z,80.60
2022-12-17T15:40:34.029Z,72.05
2022-12-17T15:43:12.521Z,73.90
2022-12-17T15:45:39.125Z,75.80
2022-12-17T15:48:06.090Z,71.47
2022-12-17T15:50:33.108Z,71.00
2022-12-17T15:52:59.667Z,64.60
2022-12-17T15:55:26.190Z,70.88
2022-12-17T15:57:52.700Z,72.18
2022-12-17T16:00:19.349Z,70.82
2022-12-17T16:02:48.468Z,80.43
2022-12-17T16:05:15.663Z,71.38
2022-12-17T16:07:43.442Z,74.85
2022-12-17T16:10:11.664Z,94.32
2022-12-17T16:12:39.156Z,78.03
2022-12-17T16:15:08.113Z,93.40
2022-12-17T16:17:35.417Z,90.38
2022-12-17T16:20:02.534Z,82.68
2022-12-17T16:22:29.118Z,78.63
2022-12-17T16:24:55.628Z,87.03
2022-12-17T16:27:22.151Z,85.68
2022-12-17T16:29:48.765Z,94.30
2022-12-17T16:32:16.883Z,97.88
2022-12-17T16:34:44.293Z,102.97
2022-12-17T16:37:11.383Z,115.13
2022-12-17T16:39:37.929Z,100.70
2022-12-17T16:42:04.602Z,98.00
2022-12-17T16:44:31.112Z,97.40
2022-12-17T16:46:59.707Z,103.03
2022-12-17T16:49:26.259Z,107.05
2022-12-17T16:51:54.163Z,91.63
2022-12-17T16:54:26.915Z,99.57
2022-12-17T16:56:54.258Z,110.80
2022-12-17T16:59:22.112Z,104.22
2022-12-17T17:01:50.820Z,103.05
2022-12-17T17:04:19.817Z,96.50
2022-12-17T17:06:48.881Z,104.40
2022-12-17T17:09:16.346Z,93.25
2022-12-17T17:11:46.868Z,90.32
2022-12-17T17:14:16.863Z,89.43
2022-12-17T17:16:43.531Z,91.03
2022-12-17T17:19:10.070Z,89.82
2022-12-17T17:21:38.876Z,91.35
2022-12-17T17:24:21.375Z,97.55
2022-12-17T17:26:49.727Z,91.20
2022-12-17T17:29:16.352Z,111.57
2022-12-17T17:34:29.547Z,91.45
2022-12-17T17:36:56.128Z,94.93
2022-12-17T17:39:22.621Z,83.05
2022-12-17T17:41:49.189Z,90.68
2022-12-17T17:44:16.551Z,85.80
2022-12-17T17:46:43.246Z,86.90
2022-12-17T17:49:09.929Z,95.63
2022-12-17T17:52:08.436Z,97.07
2022-12-17T17:54:26.056Z,101.72
2022-12-17T17:56:52.611Z,100.88
2022-12-17T17:59:19.494Z,120.95
2022-12-17T18:01:50.934Z,118.13
2022-12-17T18:04:21.988Z,117.10
2022-12-17T18:07:23.184Z,114.75
2022-12-17T18:09:35.528Z,115.32
2022-12-17T18:12:22.438Z,112.85
2022-12-17T18:15:12.698Z,151.15
2022-12-17T18:17:35.549Z,136.88
2022-12-17T18:20:02.140Z,135.43
2022-12-17T18:22:28.984Z,126.35
2022-12-17T18:24:55.486Z,151.32
2022-12-17T18:27:22.114Z,118.53
2022-12-17T18:29:48.644Z,116.70
2022-12-17T18:32:15.233Z,107.32
2022-12-17T18:34:41.877Z,102.32
2022-12-17T18:37:10.425Z,97.80
2022-12-17T18:39:37.719Z,86.68
2022-12-17T18:42:23.032Z,84.32
2022-12-17T18:44:49.845Z,83.32
2022-12-17T18:47:16.539Z,95.72
2022-12-17T18:49:43.269Z,96.70
2022-12-17T18:52:16.259Z,98.30
2022-12-17T18:57:09.971Z,111.93
2022-12-17T18:59:37.376Z,118.07
2022-12-17T19:02:04.306Z,119.05
2022-12-17T19:04:32.970Z,140.85
2022-12-17T19:06:59.818Z,133.68
2022-12-17T19:09:36.013Z,109.93
2022-12-17T19:12:05.008Z,106.05
2022-12-17T19:14:32.230Z,95.38
2022-12-17T19:16:59.331Z,103.55
2022-12-17T19:19:26.827Z,88.63
2022-12-17T19:21:55.243Z,93.10
2022-12-17T19:24:22.888Z,104.70
2022-12-17T19:26:50.391Z,105.32
2022-12-17T19:29:18.475Z,99.93
2022-12-17T19:31:45.748Z,102.95
2022-12-17T19:34:14.000Z,105.82
2022-12-17T19:36:41.402Z,108.20
2022-12-17T19:39:12.315Z,107.30
2022-12-17T19:41:39.113Z,102.10
2022-12-17T19:44:08.110Z,109.72
2022-12-17T19:46:36.199Z,99.40
2022-12-17T19:49:03.813Z,100.85
2022-12-17T19:51:31.838Z,112.85
2022-12-17T19:54:01.960Z,113.07
2022-12-17T19:56:34.693Z,113.65
2022-12-17T19:59:04.845Z,107.45
2022-12-17T20:01:33.490Z,116.70
2022-12-17T20:04:00.333Z,126.65
2022-12-17T20:06:29.526Z,120.70
2022-12-17T20:08:58.432Z,109.60
2022-12-17T20:11:35.364Z,133.40
2022-12-17T20:14:06.046Z,133.05
2022-12-17T20:16:35.765Z,109.13
2022-12-17T20:19:03.840Z,151.90
2022-12-17T20:21:30.635Z,127.50
2022-12-17T20:23:57.524Z,154.38
2022-12-17T20:26:24.516Z,109.07
2022-12-17T20:28:51.176Z,120.15
2022-12-17T20:31:18.143Z,119.10
2022-12-17T20:33:44.750Z,201.40
2022-12-17T20:36:14.727Z,174.07
2022-12-17T20:38:43.152Z,118.40
2022-12-17T20:41:24.494Z,136.75
2022-12-17T20:43:51.884Z,143.25
2022-12-17T20:46:19.945Z,146.23
2022-12-17T20:48:47.008Z,143.32
2022-12-17T20:51:20.782Z,125.45
2022-12-17T20:53:47.728Z,114.05
2022-12-17T20:56:17.415Z,99.18
2022-12-17T20:58:44.728Z,149.45
2022-12-17T21:01:14.304Z,99.25
2022-12-17T21:03:41.201Z,109.25
2022-12-17T21:06:41.603Z,107.53
2022-12-17T21:09:09.198Z,95.68
2022-12-17T21:11:37.090Z,97.20
2022-12-17T21:14:10.930Z,151.10
2022-12-17T21:16:39.538Z,146.63
2022-12-17T21:19:07.900Z,114.57
2022-12-17T21:21:36.684Z,121.82
2022-12-17T21:24:04.134Z,120.90
2022-12-17T21:26:36.214Z,105.72
2022-12-17T21:29:04.854Z,120.75
2022-12-17T21:31:38.039Z,131.93
2022-12-17T21:34:06.814Z,135.15
2022-12-17T21:36:34.720Z,89.75
2022-12-17T21:39:02.159Z,110.13
2022-12-17T21:41:37.808Z,143.23
2022-12-17T21:44:08.014Z,111.55
2022-12-17T21:46:34.943Z,146.48
2022-12-17T21:49:06.622Z,83.28
2022-12-17T21:51:33.459Z,134.65
2022-12-17T21:54:08.410Z,98.13
2022-12-17T21:56:36.176Z,108.43
2022-12-17T21:59:02.957Z,125.45
2022-12-17T22:01:32.316Z,114.88
2022-12-17T22:04:02.144Z,83.53
2022-12-17T22:06:35.824Z,89.05
2022-12-17T22:09:17.425Z,86.10
2022-12-17T22:12:19.118Z,91.60
2022-12-17T22:14:46.700Z,95.70
2022-12-17T22:17:13.213Z,90.72
2022-12-17T22:19:39.907Z,145.63
2022-12-17T22:22:06.441Z,99.45
2022-12-17T22:24:36.668Z,93.90
2022-12-17T22:27:04.241Z,94.32
2022-12-17T22:29:55.094Z,90.97
2022-12-17T22:32:44.440Z,118.15
2022-12-17T22:37:13.650Z,97.43
2022-12-17T22:40:56.406Z,100.05
2022-12-17T22:44:37.891Z,109.75
2022-12-17T22:44:38.221Z,88.43
2022-12-17T22:46:18.338Z,100.20
2022-12-17T22:48:44.979Z,93.35
2022-12-17T22:51:12.947Z,89.95
2022-12-17T22:53:43.525Z,89.72
2022-12-17T22:56:16.068Z,103.82
2022-12-17T22:58:54.038Z,106.30
2022-12-17T23:01:23.117Z,100.47
2022-12-17T23:03:53.825Z,95.55
2022-12-17T23:06:20.957Z,96.60
2022-12-17T23:08:47.701Z,91.47
2022-12-17T23:11:17.479Z,89.05
2022-12-17T23:13:44.462Z,84.07
2022-12-17T23:16:13.598Z,92.63
2022-12-17T23:18:41.235Z,86.03
2022-12-17T23:21:25.136Z,91.10
2022-12-17T23:26:27.644Z,82.35
2022-12-17T23:28:58.249Z,85.03
2022-12-17T23:31:31.471Z,84.85
2022-12-17T23:33:58.099Z,84.90
2022-12-17T23:36:25.663Z,78.13
2022-12-17T23:38:53.038Z,76.20
2022-12-17T23:41:21.995Z,78.85
2022-12-17T23:43:49.533Z,74.90
2022-12-17T23:46:17.751Z,80.55
2022-12-17T23:48:46.075Z,85.28
2022-12-17T23:51:14.698Z,77.05
2022-12-17T23:53:42.554Z,79.53
2022-12-17T23:56:11.246Z,79.03
2022-12-17T23:58:39.238Z,85.05
